Time;durP1;ratioP1;P1;durP2;ratioP2;P2;SDS_P1;SDS_P2;PMS_P1;PMS_P2;Temp;Humidity;BMP_temperature;BMP_pressure;BME280_temperature;BME280_humidity;BME280_pressure;Samples;Min_cycle;Max_cycle;Signal;HPM_P1;HPM_P2
2022/01/26 00:00:56;;;;;;;20.77;9.10;;;;;;;4.54;75.81;102149.57;1697461;84;21089;-81
2022/01/26 00:06:03;;;;;;;23.32;8.90;;;;;;;4.53;75.80;102143.86;1697396;84;21104;-81
2022/01/26 00:08:26;;;;;;;20.15;8.03;;;;;;;4.50;75.73;102141.03;1697201;83;22219;-81
2022/01/26 00:10:56;;;;;;;21.70;8.25;;;;;;;4.50;75.82;102134.91;1697393;84;22906;-81
2022/01/26 00:13:21;;;;;;;18.00;7.90;;;;;;;4.33;75.87;102098.10;1697051;83;21149;-81
2022/01/26 00:15:48;;;;;;;19.23;8.73;;;;;;;4.48;75.81;102129.59;1697578;84;21105;-80
2022/01/26 00:18:16;;;;;;;20.80;8.80;;;;;;;4.44;75.77;102127.15;1697579;84;21074;-81
2022/01/26 00:20:52;;;;;;;20.88;8.90;;;;;;;4.42;75.88;102131.36;1697217;84;21100;-81
2022/01/26 00:26:01;;;;;;;15.98;5.92;;;;;;;4.40;75.85;102130.34;1666976;84;21093;-81
2022/01/26 00:39:17;;;;;;;16.57;6.53;;;;;;;4.43;76.05;102123.12;1697725;84;21651;-81
2022/01/26 00:41:46;;;;;;;15.60;6.58;;;;;;;4.43;76.07;102130.58;1697727;84;21749;-81
2022/01/26 00:44:12;;;;;;;25.12;8.08;;;;;;;4.44;76.05;102122.34;1697570;83;21812;-81
2022/01/26 00:46:48;;;;;;;17.40;6.83;;;;;;;4.43;76.03;102112.70;1697729;84;21112;-81
2022/01/26 00:49:08;;;;;;;17.57;7.25;;;;;;;4.41;76.02;102112.98;1696332;83;22535;-81
2022/01/26 00:51:34;;;;;;;19.92;7.20;;;;;;;4.38;75.98;102110.18;1697622;84;21516;-82
2022/01/26 00:54:05;;;;;;;18.80;6.47;;;;;;;4.38;76.03;102108.88;1697778;84;21069;-81
2022/01/26 00:56:30;;;;;;;20.70;7.03;;;;;;;4.34;76.01;102110.36;1697692;84;21134;-81
2022/01/26 00:58:58;;;;;;;18.55;7.00;;;;;;;4.30;75.99;102112.24;1697404;84;21743;-81
2022/01/26 01:01:25;;;;;;;19.73;7.35;;;;;;;4.28;76.05;102108.22;1697914;84;21901;-81
2022/01/26 01:03:51;;;;;;;21.85;6.67;;;;;;;4.25;76.08;102106.67;1697967;84;21061;-81
2022/01/26 01:06:24;;;;;;;20.12;6.95;;;;;;;4.25;76.04;102105.78;1697997;84;21049;-81
2022/01/26 01:08:47;;;;;;;17.90;7.58;;;;;;;4.22;76.10;102105.17;1697634;83;21101;-82
2022/01/26 01:11:14;;;;;;;18.15;7.37;;;;;;;4.23;76.17;102112.59;1698082;84;21133;-81
2022/01/26 01:13:41;;;;;;;24.90;8.75;;;;;;;4.23;76.17;102114.78;1698063;84;21939;-81
2022/01/26 01:16:12;;;;;;;25.23;8.83;;;;;;;4.21;76.06;102110.27;1697930;84;21074;-81
2022/01/26 01:18:49;;;;;;;21.42;7.72;;;;;;;4.20;76.16;102111.05;1667574;84;21591;-81
2022/01/26 01:26:48;;;;;;;19.50;6.75;;;;;;;4.23;76.22;102099.55;1708782;83;21567;-81
2022/01/26 01:34:14;;;;;;;13.50;4.95;;;;;;;4.22;76.30;102097.73;1717675;83;22266;-81
2022/01/26 01:36:43;;;;;;;13.58;4.33;;;;;;;4.22;76.36;102092.52;1754260;81;21345;-81
2022/01/26 01:39:12;;;;;;;15.60;4.50;;;;;;;4.20;76.26;102088.48;1718125;82;22403;-81
2022/01/26 01:41:39;;;;;;;13.18;4.30;;;;;;;4.21;76.34;102086.81;1753862;81;21049;-82
2022/01/26 01:44:11;;;;;;;11.80;4.40;;;;;;;4.19;76.30;102088.00;1754445;81;21057;-80
2022/01/26 01:46:41;;;;;;;13.43;4.35;;;;;;;4.18;76.29;102086.17;1720438;81;21077;-82
2022/01/26 01:49:06;;;;;;;17.45;4.87;;;;;;;4.20;76.39;102088.48;1753841;81;21073;-81
2022/01/26 01:51:37;;;;;;;10.45;4.60;;;;;;;4.20;76.35;102087.59;1689594;83;21893;-78
2022/01/26 01:54:03;;;;;;;14.07;4.67;;;;;;;4.22;76.43;102088.23;1717741;81;21074;-82
2022/01/26 01:56:38;;;;;;;16.90;5.58;;;;;;;4.23;76.31;102082.61;1717808;82;21614;-81
2022/01/26 01:58:58;;;;;;;12.30;5.08;;;;;;;4.23;76.30;102076.09;1752819;81;21065;-82
2022/01/26 02:01:28;;;;;;;16.45;5.12;;;;;;;4.25;76.29;102083.63;1717731;82;21053;-81
2022/01/26 02:03:55;;;;;;;11.95;4.30;;;;;;;4.24;76.25;102076.22;1754158;81;21816;-81
2022/01/26 02:06:22;;;;;;;13.98;4.30;;;;;;;4.23;76.19;102076.99;1717814;83;21367;-81
2022/01/26 02:08:49;;;;;;;11.03;4.50;;;;;;;4.23;76.17;102076.99;1754287;81;21069;-82
2022/01/26 02:11:16;;;;;;;10.85;4.03;;;;;;;4.24;76.08;102082.73;1720659;83;21055;-82
2022/01/26 02:13:53;;;;;;;14.13;4.25;;;;;;;4.21;76.00;102079.89;1717756;82;21182;-82
2022/01/26 02:16:21;;;;;;;12.03;4.65;;;;;;;4.21;75.98;102073.38;1717376;82;21775;-82
2022/01/26 03:01:57;;;;;;;12.85;4.12;;;;;;;4.19;75.73;102038.89;1725811;83;21085;-82
2022/01/26 03:04:33;;;;;;;10.68;4.75;;;;;;;4.17;75.70;102040.08;1700686;83;21132;-82
2022/01/26 03:07:05;;;;;;;9.03;4.33;;;;;;;4.17;75.78;102031.37;1725953;83;21069;-82
2022/01/26 03:09:31;;;;;;;9.13;4.08;;;;;;;4.19;75.72;102030.66;1725771;82;21776;-82
2022/01/26 03:11:55;;;;;;;16.45;4.92;;;;;;;4.16;75.70;102026.52;1725984;83;21109;-82
2022/01/26 03:14:38;;;;;;;12.05;4.50;;;;;;;4.16;75.71;102033.45;1701247;81;21084;-82
2022/01/26 03:17:00;;;;;;;16.12;4.42;;;;;;;4.14;75.60;102028.53;1725814;82;21137;-81
2022/01/26 03:19:41;;;;;;;12.50;4.17;;;;;;;4.09;75.61;102022.97;1725958;83;21049;-80
2022/01/26 03:30:07;;;;;;;13.20;4.10;;;;;;;3.88;75.48;102004.10;1725736;83;21242;-80
2022/01/26 03:35:18;;;;;;;14.58;4.25;;;;;;;3.74;75.53;102002.22;1725539;83;21815;-81
2022/01/26 03:37:56;;;;;;;11.25;3.85;;;;;;;3.63;75.55;102006.23;1725769;82;21665;-82
2022/01/26 03:40:30;;;;;;;11.38;3.85;;;;;;;3.56;75.55;102003.97;1724888;82;21109;-82
2022/01/26 03:42:49;;;;;;;12.80;4.00;;;;;;;3.46;75.51;102006.30;1725328;82;21670;-82
2022/01/26 03:45:20;;;;;;;14.80;4.92;;;;;;;3.37;75.58;102003.02;1726065;83;21120;-82
2022/01/26 03:47:44;;;;;;;12.90;4.08;;;;;;;3.24;75.70;101996.39;1725362;81;21788;-82
2022/01/26 03:50:11;;;;;;;13.98;4.62;;;;;;;3.25;75.83;102002.13;1726141;82;21097;-82
2022/01/26 03:52:38;;;;;;;13.30;4.15;;;;;;;3.24;76.07;102000.30;1726243;81;21065;-82
2022/01/26 03:55:09;;;;;;;10.23;4.47;;;;;;;3.22;76.04;102003.18;1725793;82;21100;-82
2022/01/26 03:57:34;;;;;;;11.10;4.92;;;;;;;3.13;75.97;101997.28;1725350;83;21509;-81
2022/01/26 04:00:08;;;;;;;13.60;4.87;;;;;;;3.08;76.12;101998.25;1716874;83;21109;-82
2022/01/26 04:02:33;;;;;;;12.73;4.70;;;;;;;3.03;76.23;101999.59;1717232;83;21120;-82
2022/01/26 04:05:03;;;;;;;12.03;4.50;;;;;;;3.02;76.40;101991.27;1754092;81;21108;-82
2022/01/26 04:07:29;;;;;;;13.58;4.55;;;;;;;3.03;76.50;101997.89;1720288;82;21054;-82
2022/01/26 04:10:03;;;;;;;10.43;4.70;;;;;;;3.02;76.46;101993.50;1720775;82;21268;-81
2022/01/26 04:12:24;;;;;;;12.53;4.90;;;;;;;2.98;76.48;101987.93;1753994;81;21830;-80
2022/01/26 04:14:57;;;;;;;11.00;4.72;;;;;;;2.93;76.44;101990.20;1749166;81;21782;-83
2022/01/26 04:17:19;;;;;;;10.45;4.40;;;;;;;2.88;76.44;101980.73;1720736;83;21046;-83
2022/01/26 04:19:53;;;;;;;10.58;4.17;;;;;;;2.81;76.32;101981.05;1717976;82;21121;-83
2022/01/26 04:22:20;;;;;;;10.98;3.70;;;;;;;2.73;76.24;101984.38;1717839;82;21579;-83
2022/01/26 04:24:49;;;;;;;7.65;3.75;;;;;;;2.65;76.26;101981.59;1718077;82;22484;-80
2022/01/26 04:27:30;;;;;;;9.85;3.92;;;;;;;2.58;76.30;101981.01;1717487;83;21109;-81
2022/01/26 04:29:51;;;;;;;7.10;3.45;;;;;;;2.53;76.38;101978.97;1717409;82;21059;-80
2022/01/26 04:32:17;;;;;;;9.88;3.95;;;;;;;2.48;76.45;101976.80;1717728;81;21149;-81
2022/01/26 04:34:49;;;;;;;15.78;3.83;;;;;;;2.45;76.49;101981.75;1689094;83;21070;-81
2022/01/26 04:37:51;;;;;;;14.55;4.10;;;;;;;2.39;76.58;101973.48;1724767;81;21800;-82
2022/01/26 04:40:07;;;;;;;9.10;3.70;;;;;;;2.37;76.72;101969.46;1721338;82;21085;-82
2022/01/26 04:42:44;;;;;;;11.93;3.92;;;;;;;2.36;76.91;101962.44;1754367;81;21058;-81
2022/01/26 04:45:08;;;;;;;12.18;3.83;;;;;;;2.36;76.99;101967.64;1753923;80;21041;-81
2022/01/26 04:47:30;;;;;;;14.60;4.45;;;;;;;2.32;77.02;101961.70;1710339;83;21438;-81
2022/01/26 04:49:57;;;;;;;11.43;3.83;;;;;;;2.28;77.07;101947.96;1725247;83;21770;-81
2022/01/26 04:52:24;;;;;;;11.38;4.28;;;;;;;2.27;77.25;101944.84;1725336;82;21065;-80
2022/01/26 04:54:51;;;;;;;12.10;4.28;;;;;;;2.27;77.38;101942.23;1725343;82;21621;-80
2022/01/26 04:57:18;;;;;;;12.73;4.40;;;;;;;2.31;77.54;101944.31;1732823;81;22157;-76
2022/01/26 04:59:45;;;;;;;15.32;3.67;;;;;;;2.35;77.65;101942.46;1723671;82;21015;-77
2022/01/26 05:02:11;;;;;;;12.40;4.72;;;;;;;2.40;77.67;101928.10;1723626;82;21898;-77
2022/01/26 05:04:41;;;;;;;12.68;4.10;;;;;;;2.41;77.55;101931.23;1704592;83;21097;-76
2022/01/26 05:07:10;;;;;;;10.98;3.50;;;;;;;2.38;77.43;101928.38;1704170;83;21144;-76
2022/01/26 05:09:37;;;;;;;12.13;3.42;;;;;;;2.33;77.42;101926.75;1704206;83;21558;-76
2022/01/26 05:12:08;;;;;;;12.03;3.10;;;;;;;2.34;77.60;101923.34;1704467;83;21666;-76
2022/01/26 05:14:35;;;;;;;10.48;3.50;;;;;;;2.40;77.76;101922.01;1723405;83;21771;-78
2022/01/26 05:17:01;;;;;;;11.40;3.30;;;;;;;2.48;77.89;101920.52;1723525;82;21078;-78
2022/01/26 05:19:28;;;;;;;8.43;3.00;;;;;;;2.59;77.96;101923.02;1723918;82;21591;-78
2022/01/26 05:21:55;;;;;;;8.53;3.42;;;;;;;2.67;77.99;101920.63;1723729;82;21082;-76
2022/01/26 05:24:22;;;;;;;11.05;3.80;;;;;;;2.75;77.93;101926.40;1704786;83;21100;-76
2022/01/26 05:26:49;;;;;;;10.95;4.22;;;;;;;2.84;77.93;101927.09;1695183;84;22589;-75
2022/01/26 05:29:16;;;;;;;12.63;4.30;;;;;;;2.94;78.02;101925.67;1696853;84;21079;-75
2022/01/26 05:31:42;;;;;;;14.10;4.03;;;;;;;3.05;77.98;101923.88;1695554;83;21093;-75
2022/01/26 05:34:11;;;;;;;11.65;4.53;;;;;;;3.16;77.97;101921.67;1694685;83;21096;-75
2022/01/26 05:36:38;;;;;;;10.78;4.62;;;;;;;3.24;77.84;101917.92;1696738;84;21219;-79
2022/01/26 05:39:08;;;;;;;14.40;4.62;;;;;;;3.31;77.80;101914.09;1695180;84;22976;-75
2022/01/26 05:41:33;;;;;;;10.08;4.20;;;;;;;3.39;77.70;101910.73;1694317;83;21351;-82
2022/01/26 05:44:00;;;;;;;10.75;4.08;;;;;;;3.45;77.64;101914.70;1696665;84;21114;-79
2022/01/26 05:46:35;;;;;;;20.82;9.55;;;;;;;3.49;77.51;101916.73;1695256;84;21141;-77
2022/01/26 05:48:56;;;;;;;26.20;11.50;;;;;;;3.53;77.50;101910.05;1695063;83;21136;-76
2022/01/26 05:51:23;;;;;;;48.85;25.45;;;;;;;3.57;77.40;101909.47;1725758;82;21811;-76
2022/01/26 05:53:49;;;;;;;62.53;35.55;;;;;;;3.59;77.43;101907.87;1695044;83;21105;-76
2022/01/26 05:56:19;;;;;;;35.83;21.65;;;;;;;3.64;77.39;101908.19;1701162;83;21097;-76
2022/01/26 05:58:45;;;;;;;31.85;18.17;;;;;;;3.67;77.38;101902.80;1694554;84;21074;-76
2022/01/26 06:01:14;;;;;;;41.35;24.35;;;;;;;3.67;77.36;101914.52;1692163;84;21421;-76
2022/01/26 06:03:43;;;;;;;23.30;11.93;;;;;;;3.69;77.38;101911.63;1692120;84;22453;-75
2022/01/26 06:06:10;;;;;;;36.28;19.00;;;;;;;3.70;77.43;101917.77;1666947;84;21567;-76
2022/01/26 06:08:37;;;;;;;27.93;15.78;;;;;;;3.71;77.45;101919.55;1692099;84;21677;-75
2022/01/26 06:11:04;;;;;;;11.65;4.83;;;;;;;3.74;77.58;101922.39;1691708;84;21104;-76
2022/01/26 06:13:34;;;;;;;13.60;7.08;;;;;;;3.76;77.60;101914.69;1695623;84;21117;-77
2022/01/26 06:16:02;;;;;;;18.77;7.97;;;;;;;3.77;77.63;101917.38;1695001;84;21781;-77
2022/01/26 06:18:31;;;;;;;22.90;9.93;;;;;;;3.78;77.66;101913.09;1695673;84;21164;-77
2022/01/26 06:20:58;;;;;;;22.35;9.13;;;;;;;3.81;77.67;101911.98;1695798;84;21161;-77
2022/01/26 06:23:24;;;;;;;17.37;8.08;;;;;;;3.78;77.60;101911.39;1695843;83;21077;-77
2022/01/26 06:25:57;;;;;;;15.78;5.30;;;;;;;3.77;77.63;101913.88;1695513;84;21097;-77
2022/01/26 06:28:27;;;;;;;19.27;7.87;;;;;;;3.75;77.67;101905.95;1695305;83;21948;-76
2022/01/26 06:31:03;;;;;;;18.90;6.97;;;;;;;3.72;77.67;101907.43;1695226;84;21112;-75
2022/01/26 06:33:53;;;;;;;21.12;8.10;;;;;;;3.71;77.78;101902.62;1696126;83;21129;-77
2022/01/26 06:36:18;;;;;;;24.50;8.75;;;;;;;3.69;77.78;101909.02;1696860;83;21106;-77
2022/01/26 06:38:46;;;;;;;23.62;8.58;;;;;;;3.66;77.88;101896.17;1728352;81;21633;-77
2022/01/26 06:41:14;;;;;;;21.82;8.93;;;;;;;3.65;77.92;101896.59;1728288;82;21778;-77
2022/01/26 06:43:48;;;;;;;49.15;25.97;;;;;;;3.65;78.00;101889.18;1725323;81;21151;-77
2022/01/26 06:46:21;;;;;;;30.05;15.45;;;;;;;3.68;78.17;101890.31;1727364;82;21235;-77
2022/01/26 06:49:28;;;;;;;19.75;9.50;;;;;;;3.57;78.03;101869.11;1725943;82;21080;-77
2022/01/26 06:51:16;;;;;;;14.43;6.28;;;;;;;3.63;78.04;101880.36;1722699;82;21111;-77
2022/01/26 06:53:45;;;;;;;12.13;4.90;;;;;;;3.59;78.09;101880.94;1728404;82;21737;-76
2022/01/26 06:56:13;;;;;;;16.17;4.42;;;;;;;3.60;78.16;101873.63;1702660;82;21051;-76
2022/01/26 06:58:43;;;;;;;17.15;5.30;;;;;;;3.58;78.23;101873.91;1728654;82;21051;-76
2022/01/26 07:01:08;;;;;;;57.00;5.97;;;;;;;3.58;78.37;101873.91;1728038;82;21051;-76
2022/01/26 07:03:35;;;;;;;14.33;5.17;;;;;;;3.59;78.42;101870.13;1728218;81;21082;-76
2022/01/26 07:06:02;;;;;;;18.02;6.15;;;;;;;3.63;78.53;101864.33;1728246;81;22385;-76
2022/01/26 07:08:28;;;;;;;36.58;17.73;;;;;;;3.66;78.51;101865.86;1728290;82;21609;-76
2022/01/26 07:10:55;;;;;;;32.40;19.80;;;;;;;3.68;78.48;101860.36;1728043;82;21115;-76
2022/01/26 07:13:23;;;;;;;27.48;15.00;;;;;;;3.70;78.57;101860.47;1728403;82;21314;-76
2022/01/26 07:21:25;;;;;;;18.73;8.85;;;;;;;3.77;78.63;101860.49;1728426;81;21347;-76
2022/01/26 07:23:57;;;;;;;13.35;7.12;;;;;;;3.79;78.63;101858.89;1728314;82;21165;-77
2022/01/26 07:26:27;;;;;;;20.97;12.10;;;;;;;3.79;78.62;101857.22;1728294;82;21075;-77
2022/01/26 07:28:56;;;;;;;18.35;8.75;;;;;;;3.82;78.73;101855.22;1752072;81;21067;-76
2022/01/26 07:31:23;;;;;;;15.63;9.58;;;;;;;3.84;78.76;101853.21;1728435;81;21760;-77
2022/01/26 07:33:55;;;;;;;17.15;8.08;;;;;;;3.85;78.69;101847.63;1728505;82;21083;-77
2022/01/26 07:36:24;;;;;;;17.15;9.35;;;;;;;3.87;78.74;101850.83;1725488;81;21571;-77
2022/01/26 07:38:55;;;;;;;14.35;8.68;;;;;;;3.90;78.84;101844.92;1725459;81;21063;-78
2022/01/26 07:41:24;;;;;;;15.15;9.30;;;;;;;3.94;78.81;101847.34;1725983;81;21480;-76
2022/01/26 07:43:49;;;;;;;16.67;8.13;;;;;;;3.97;78.88;101843.66;1724831;81;22639;-76
2022/01/26 07:46:17;;;;;;;8.70;6.35;;;;;;;4.03;78.91;101845.38;1725407;83;21084;-76
2022/01/26 07:48:43;;;;;;;11.38;6.25;;;;;;;4.07;78.90;101845.70;1725591;82;21067;-76
2022/01/26 07:51:10;;;;;;;14.07;7.03;;;;;;;4.13;78.85;101849.51;1725644;81;21083;-76
2022/01/26 07:53:37;;;;;;;14.60;8.18;;;;;;;4.12;78.77;101839.91;1725551;81;21103;-76
2022/01/26 07:56:04;;;;;;;21.70;9.68;;;;;;;4.11;78.70;101839.38;1725597;81;21743;-76
2022/01/26 07:58:31;;;;;;;28.27;13.03;;;;;;;4.08;78.65;101837.48;1725522;81;21072;-76
2022/01/26 08:00:57;;;;;;;21.48;8.70;;;;;;;4.05;78.69;101832.05;1725527;82;21127;-76
2022/01/26 08:03:33;;;;;;;15.00;8.93;;;;;;;4.05;78.77;101829.45;1725548;81;21059;-78
2022/01/26 08:05:55;;;;;;;12.55;7.42;;;;;;;4.05;78.84;101825.54;1725348;82;21190;-76
2022/01/26 08:08:22;;;;;;;12.05;7.20;;;;;;;4.07;78.92;101829.14;1725770;81;21410;-77
2022/01/26 08:10:50;;;;;;;13.80;7.10;;;;;;;4.09;79.00;101823.64;1725770;83;21488;-76
2022/01/26 08:13:18;;;;;;;17.32;9.18;;;;;;;4.16;79.15;101822.37;1725105;83;21127;-76
2022/01/26 08:15:45;;;;;;;10.10;6.83;;;;;;;4.24;79.15;101823.78;1725813;81;21241;-76
2022/01/26 08:18:11;;;;;;;11.60;7.22;;;;;;;4.31;79.25;101818.19;1725576;81;21067;-76
2022/01/26 08:20:40;;;;;;;8.68;6.50;;;;;;;4.42;79.30;101817.61;1725739;83;21758;-76
2022/01/26 08:23:07;;;;;;;10.40;6.37;;;;;;;4.50;79.26;101814.21;1725590;81;21172;-76
2022/01/26 08:25:33;;;;;;;8.63;6.15;;;;;;;4.57;79.33;101809.50;1725809;83;21059;-76
2022/01/26 08:28:19;;;;;;;10.70;6.30;;;;;;;4.65;79.29;101811.30;1725536;83;21594;-76
2022/01/26 08:30:37;;;;;;;11.22;6.67;;;;;;;4.71;79.29;101805.59;1724408;83;21152;-76
2022/01/26 08:33:05;;;;;;;11.00;6.92;;;;;;;4.78;79.26;101807.39;1725454;82;21461;-77
2022/01/26 08:35:32;;;;;;;9.10;6.37;;;;;;;4.83;79.27;101804.70;1725588;81;21610;-77
2022/01/26 08:38:02;;;;;;;8.80;6.30;;;;;;;4.87;79.24;101805.39;1725604;81;21130;-77
2022/01/26 08:40:28;;;;;;;10.90;6.90;;;;;;;4.93;79.28;101806.19;1726148;82;21726;-77
2022/01/26 08:42:55;;;;;;;9.93;7.03;;;;;;;4.97;79.31;101797.75;1726189;81;21041;-76
2022/01/26 08:45:24;;;;;;;9.60;7.22;;;;;;;5.02;79.30;101801.97;1726260;82;22593;-77
2022/01/26 08:47:51;;;;;;;9.93;7.78;;;;;;;5.07;79.29;101800.57;1725959;81;21001;-76
2022/01/26 08:50:18;;;;;;;9.90;6.75;;;;;;;5.11;79.27;101807.78;1725930;82;21126;-77
2022/01/26 08:52:44;;;;;;;9.83;7.33;;;;;;;5.20;79.41;101800.55;1725923;82;21195;-76
2022/01/26 08:55:11;;;;;;;9.15;6.87;;;;;;;5.19;79.34;101782.17;1725825;83;21095;-76
2022/01/26 08:57:38;;;;;;;8.33;6.45;;;;;;;5.37;79.32;101788.97;1725921;82;22481;-77
2022/01/26 09:00:07;;;;;;;8.95;5.78;;;;;;;5.47;79.37;101795.66;1725756;81;21052;-77
2022/01/26 09:02:35;;;;;;;6.87;4.35;;;;;;;5.53;79.30;101796.03;1725911;83;22329;-77
2022/01/26 09:05:04;;;;;;;6.20;4.60;;;;;;;5.63;79.37;101799.31;1725780;81;21067;-77
2022/01/26 09:07:31;;;;;;;4.90;3.27;;;;;;;5.73;79.36;101793.36;1701310;83;21554;-77
2022/01/26 09:10:00;;;;;;;5.42;4.22;;;;;;;5.78;79.15;101790.22;1725854;83;21805;-77
2022/01/26 09:12:27;;;;;;;5.95;4.00;;;;;;;5.80;79.08;101794.20;1725867;82;21565;-77
2022/01/26 09:14:54;;;;;;;7.03;4.20;;;;;;;5.85;79.12;101793.67;1725843;82;21123;-77
2022/01/26 09:17:23;;;;;;;7.22;3.90;;;;;;;5.90;79.09;101788.74;1725758;81;21197;-77
2022/01/26 09:19:50;;;;;;;6.05;3.92;;;;;;;6.01;79.18;101794.66;1725946;83;21099;-77
2022/01/26 09:22:17;;;;;;;5.72;3.90;;;;;;;6.11;79.16;101783.93;1725765;83;21800;-77
2022/01/26 09:24:44;;;;;;;5.90;3.87;;;;;;;6.21;79.13;101786.68;1725616;83;21063;-77
2022/01/26 09:27:14;;;;;;;7.15;3.80;;;;;;;6.34;79.19;101787.89;1725577;81;21068;-77
2022/01/26 09:29:41;;;;;;;6.05;3.22;;;;;;;6.48;79.10;101783.91;1725891;82;21095;-77
2022/01/26 09:32:08;;;;;;;4.95;3.27;;;;;;;6.55;78.96;101780.42;1725800;83;21079;-77
2022/01/26 09:34:39;;;;;;;4.35;3.10;;;;;;;6.61;78.87;101772.92;1726090;81;22539;-77
2022/01/26 09:37:10;;;;;;;3.95;2.85;;;;;;;6.68;78.74;101763.72;1718899;82;21088;-77
2022/01/26 09:39:38;;;;;;;4.75;3.22;;;;;;;6.76;78.75;101768.08;1718427;82;21131;-77
2022/01/26 09:42:06;;;;;;;5.17;3.70;;;;;;;6.85;78.70;101764.67;1718324;82;21633;-77
2022/01/26 09:44:33;;;;;;;5.62;3.33;;;;;;;6.90;78.57;101763.61;1718815;83;21146;-77
2022/01/26 09:46:59;;;;;;;4.37;3.25;;;;;;;6.96;78.49;101757.02;1696099;83;21748;-77
2022/01/26 09:49:32;;;;;;;4.85;3.40;;;;;;;7.01;78.44;101753.33;1718787;82;21036;-77
2022/01/26 09:51:54;;;;;;;3.83;2.98;;;;;;;7.06;78.26;101746.64;1718868;83;21009;-77
2022/01/26 09:54:22;;;;;;;3.27;2.55;;;;;;;7.14;78.33;101741.40;1718355;82;20989;-77
2022/01/26 09:56:51;;;;;;;3.33;2.62;;;;;;;7.22;78.16;101735.69;1718432;82;21189;-77
2022/01/26 09:59:18;;;;;;;3.62;2.50;;;;;;;7.28;78.13;101726.84;1718507;82;22558;-77
2022/01/26 10:01:49;;;;;;;4.22;2.45;;;;;;;7.33;77.99;101724.08;1718110;82;21135;-77
2022/01/26 10:04:26;;;;;;;3.00;2.40;;;;;;;7.33;77.76;101710.98;1718390;82;21087;-76
2022/01/26 10:07:21;;;;;;;2.75;2.10;;;;;;;7.36;77.79;101712.05;1718391;83;21685;-77
2022/01/26 10:09:58;;;;;;;3.58;2.35;;;;;;;7.38;77.61;101706.48;1718297;83;21107;-76
2022/01/26 10:15:28;;;;;;;2.50;2.08;;;;;;;7.44;77.55;101709.83;1718106;82;21172;-77
2022/01/26 10:18:14;;;;;;;3.08;2.50;;;;;;;7.45;77.25;101702.48;1718429;82;21104;-77
2022/01/26 10:20:53;;;;;;;7.87;4.90;;;;;;;7.44;77.21;101698.46;1718397;83;21116;-77
2022/01/26 10:23:29;;;;;;;13.78;7.80;;;;;;;7.52;77.37;101694.09;1718545;82;21060;-77
2022/01/26 10:26:03;;;;;;;11.20;6.40;;;;;;;7.71;77.47;101681.95;1718115;82;22495;-75
2022/01/26 10:28:51;;;;;;;5.90;3.40;;;;;;;7.82;77.18;101668.98;1718446;83;21139;-76
2022/01/26 10:31:31;;;;;;;3.65;2.30;;;;;;;7.90;76.92;101678.16;1718312;83;21091;-76
2022/01/26 10:34:10;;;;;;;15.90;8.73;;;;;;;7.93;76.75;101685.27;1718280;82;21088;-77
2022/01/26 10:36:40;;;;;;;5.25;2.80;;;;;;;7.95;76.67;101685.82;1722620;82;21051;-77
2022/01/26 10:39:11;;;;;;;5.85;3.55;;;;;;;7.98;76.43;101691.66;1725529;81;21776;-77
2022/01/26 10:41:40;;;;;;;7.95;6.50;;;;;;;7.92;76.17;101693.94;1725694;81;21064;-77
2022/01/26 10:44:07;;;;;;;7.15;6.00;;;;;;;7.87;76.11;101691.10;1726197;81;21099;-77
2022/01/26 10:46:40;;;;;;;4.00;3.25;;;;;;;7.84;76.18;101679.56;1725525;83;21529;-77
2022/01/26 10:54:35;;;;;;;5.10;3.37;;;;;;;7.85;76.21;101669.16;1725391;82;21087;-77
2022/01/26 10:56:50;;;;;;;3.45;2.45;;;;;;;7.87;76.12;101675.38;1721599;81;21095;-77
2022/01/26 10:59:17;;;;;;;4.83;3.52;;;;;;;7.82;75.93;101679.47;1725405;83;21063;-77
2022/01/26 11:01:44;;;;;;;3.08;1.92;;;;;;;7.76;75.85;101673.92;1725438;81;21135;-77
2022/01/26 11:04:13;;;;;;;3.15;2.40;;;;;;;7.65;75.66;101666.81;1725555;83;21797;-77
2022/01/26 11:06:42;;;;;;;3.70;2.40;;;;;;;7.57;75.75;101662.49;1725541;81;21162;-77
2022/01/26 11:09:13;;;;;;;3.65;2.45;;;;;;;7.57;75.87;101670.77;1725639;83;21068;-77
2022/01/26 11:11:40;;;;;;;3.20;1.77;;;;;;;7.55;75.86;101668.06;1725475;81;21091;-77
2022/01/26 11:14:22;;;;;;;2.47;2.05;;;;;;;7.56;75.84;101657.17;1725688;81;21044;-77
2022/01/26 11:16:50;;;;;;;2.37;1.90;;;;;;;7.53;75.77;101646.55;1725814;81;22484;-77
2022/01/26 11:19:17;;;;;;;4.85;2.10;;;;;;;7.52;75.90;101649.98;1725512;83;21071;-77
2022/01/26 11:21:44;;;;;;;5.62;2.20;;;;;;;7.48;75.81;101643.67;1722892;83;21065;-77
2022/01/26 11:24:20;;;;;;;4.50;2.33;;;;;;;7.45;75.77;101647.85;1725413;81;21159;-77
2022/01/26 11:26:49;;;;;;;6.62;4.70;;;;;;;7.40;75.69;101651.56;1725491;81;21055;-77
2022/01/26 11:29:21;;;;;;;4.70;3.42;;;;;;;7.34;75.77;101636.84;1725633;81;21784;-77
2022/01/26 11:31:47;;;;;;;4.67;3.02;;;;;;;7.33;75.81;101632.41;1725569;82;21095;-77
2022/01/26 11:34:18;;;;;;;5.08;3.12;;;;;;;7.37;75.89;101639.60;1725602;81;21648;-77
2022/01/26 11:36:44;;;;;;;3.83;2.90;;;;;;;7.38;75.93;101641.00;1700450;83;21012;-77
2022/01/26 11:47:27;;;;;;;6.37;2.90;;;;;;;7.39;75.51;101626.17;1715855;82;21053;-77
2022/01/26 11:50:10;;;;;;;6.87;4.67;;;;;;;7.31;75.48;101627.08;1716240;82;21067;-77
2022/01/26 11:52:40;;;;;;;5.20;4.00;;;;;;;7.27;75.51;101629.48;1715852;83;21059;-77
2022/01/26 11:55:25;;;;;;;6.67;3.62;;;;;;;7.25;75.39;101616.30;1716336;82;23083;-77
2022/01/26 11:57:52;;;;;;;6.37;2.62;;;;;;;7.23;75.43;101621.87;1715953;82;21091;-76
2022/01/26 12:00:52;;;;;;;5.15;3.30;;;;;;;7.21;75.45;101615.66;1716144;82;21130;-76
2022/01/26 12:03:08;;;;;;;5.37;3.42;;;;;;;7.24;75.59;101611.86;1713827;82;21170;-76
2022/01/26 12:05:37;;;;;;;5.95;3.37;;;;;;;7.28;75.54;101609.00;1716133;82;21084;-76
2022/01/26 12:08:04;;;;;;;3.52;2.35;;;;;;;7.25;75.32;101610.17;1715096;82;21761;-76
2022/01/26 12:10:32;;;;;;;2.58;2.12;;;;;;;7.16;75.08;101601.41;1716163;82;21075;-77
2022/01/26 12:13:12;;;;;;;5.37;2.30;;;;;;;7.09;75.04;101601.91;1716223;83;21079;-77
2022/01/26 12:15:44;;;;;;;2.55;1.75;;;;;;;7.05;75.00;101597.33;1716359;83;21060;-77
2022/01/26 12:34:42;;;;;;;4.10;2.47;;;;;;;7.01;74.59;101558.31;1716428;83;21766;-77
2022/01/26 12:45:02;;;;;;;3.90;2.20;;;;;;;6.89;74.57;101539.33;1725942;81;21120;-77
2022/01/26 12:47:30;;;;;;;3.45;2.30;;;;;;;6.87;74.57;101540.59;1725527;81;22582;-77
2022/01/26 12:49:57;;;;;;;3.60;1.90;;;;;;;6.88;74.60;101531.01;1699241;83;21092;-78
2022/01/26 12:52:24;;;;;;;3.52;1.90;;;;;;;6.89;74.64;101532.78;1725614;83;21131;-77
2022/01/26 12:54:51;;;;;;;2.58;1.90;;;;;;;6.89;74.57;101531.09;1725620;83;21135;-77
2022/01/26 12:57:17;;;;;;;4.58;2.40;;;;;;;6.89;74.57;101530.17;1725557;83;21127;-77
2022/01/26 12:59:44;;;;;;;2.85;2.47;;;;;;;6.87;74.59;101529.20;1725672;83;21740;-77
2022/01/26 13:02:11;;;;;;;4.42;2.47;;;;;;;6.76;74.55;101509.03;1725597;81;21051;-78
2022/01/26 13:04:37;;;;;;;2.87;2.00;;;;;;;6.83;74.56;101525.94;1725806;83;21087;-77
2022/01/26 13:07:04;;;;;;;3.20;2.42;;;;;;;6.79;74.52;101508.78;1725769;81;21531;-77
2022/01/26 13:09:41;;;;;;;3.35;1.98;;;;;;;6.76;74.54;101522.11;1725750;83;21585;-78
2022/01/26 13:12:09;;;;;;;2.67;1.70;;;;;;;6.66;74.32;101510.23;1725894;83;21765;-78
2022/01/26 13:14:49;;;;;;;3.30;2.10;;;;;;;6.58;74.31;101501.09;1725326;81;21490;-78
2022/01/26 13:17:30;;;;;;;3.15;1.87;;;;;;;6.50;74.24;101501.11;1724440;81;21507;-78
2022/01/26 13:20:21;;;;;;;6.62;3.92;;;;;;;6.47;74.40;101494.39;1725498;81;21064;-78
2022/01/26 13:25:29;;;;;;;;;;;;;;;6.42;74.49;101489.83;1728439;81;22449;-78
2022/01/26 13:31:02;;;;;;;4.40;1.98;;;;;;;6.40;74.43;101477.45;1659402;85;21142;-78
2022/01/26 13:36:08;;;;;;;2.02;1.50;;;;;;;6.34;74.37;101481.95;1671241;84;21766;-78
2022/01/26 13:57:40;;;;;;;3.22;2.47;;;;;;;6.18;74.05;101451.91;1671031;85;21110;-76
2022/01/26 13:59:47;;;;;;;2.58;1.82;;;;;;;6.11;74.09;101451.96;1630234;87;21168;-79
2022/01/26 14:02:13;;;;;;;3.02;2.00;;;;;;;6.01;73.95;101453.60;1633764;87;21169;-77
2022/01/26 14:04:39;;;;;;;2.37;1.50;;;;;;;5.93;74.07;101438.78;1671456;85;22384;-77
2022/01/26 14:07:07;;;;;;;2.80;2.00;;;;;;;5.91;74.20;101437.80;1671580;84;21588;-77
2022/01/26 14:09:34;;;;;;;4.15;2.12;;;;;;;5.87;74.23;101430.58;1725696;81;21088;-77
2022/01/26 14:12:01;;;;;;;2.47;1.65;;;;;;;5.83;74.32;101429.92;1725751;81;21053;-77